createdAt,value
2023-01-19T00:01:10.949Z,98262.53
2023-01-19T00:03:58.116Z,98264.75
2023-01-19T00:06:24.805Z,98253.78
2023-01-19T00:08:51.529Z,98255.78
2023-01-19T00:11:18.673Z,98252.44
2023-01-19T00:13:52.065Z,98257.84
2023-01-19T00:16:21.738Z,98251.38
2023-01-19T00:18:50.746Z,98255.81
2023-01-19T00:21:17.893Z,98262.38
2023-01-19T00:23:47.514Z,98258.00
2023-01-19T00:26:17.540Z,98256.97
2023-01-19T00:28:45.046Z,98248.47
2023-01-19T00:33:49.201Z,98245.03
2023-01-19T00:36:16.644Z,98253.38
2023-01-19T00:38:43.493Z,98248.44
2023-01-19T00:44:49.535Z,98252.12
2023-01-19T00:47:16.287Z,98247.50
2023-01-19T00:49:42.825Z,98246.47
2023-01-19T00:52:09.400Z,98242.94
2023-01-19T00:54:37.531Z,98233.72
2023-01-19T00:57:04.320Z,98226.47
2023-01-19T00:59:30.893Z,98241.44
2023-01-19T01:01:57.699Z,98244.81
2023-01-19T01:04:24.380Z,98235.59
2023-01-19T01:06:50.945Z,98237.75
2023-01-19T01:09:17.736Z,98236.31
2023-01-19T01:11:44.437Z,98229.91
2023-01-19T01:14:12.212Z,98230.72
2023-01-19T01:16:39.388Z,98229.62
2023-01-19T01:19:05.981Z,98237.84
2023-01-19T01:24:02.162Z,98245.91
2023-01-19T01:26:28.972Z,98254.59
2023-01-19T01:29:08.459Z,98256.72
2023-01-19T01:31:35.385Z,98251.78
2023-01-19T01:34:01.989Z,98250.84
2023-01-19T01:36:31.858Z,98240.56
2023-01-19T01:39:13.877Z,98242.47
2023-01-19T01:42:26.855Z,98239.00
2023-01-19T01:45:28.567Z,98241.03
2023-01-19T01:48:01.594Z,98240.56
2023-01-19T01:50:29.678Z,98245.41
2023-01-19T01:58:09.729Z,98262.06
2023-01-19T02:00:56.742Z,98260.88
2023-01-19T02:03:25.556Z,98270.84
2023-01-19T02:05:57.568Z,98274.47
2023-01-19T02:08:59.895Z,98281.41
2023-01-19T02:11:45.384Z,98276.06
2023-01-19T02:37:13.777Z,98290.53
2023-01-19T02:39:47.714Z,98267.72
2023-01-19T02:42:21.488Z,98260.81
2023-01-19T02:44:50.734Z,98258.47
2023-01-19T02:47:17.416Z,98255.44
2023-01-19T02:49:44.017Z,98240.34
2023-01-19T02:52:18.512Z,98231.91
2023-01-19T02:54:51.065Z,98243.19
2023-01-19T02:57:27.270Z,98253.69
2023-01-19T02:59:58.577Z,98262.22
2023-01-19T03:02:33.986Z,98269.69
2023-01-19T03:13:49.083Z,98255.06
2023-01-19T03:16:51.036Z,98277.56
2023-01-19T03:19:22.221Z,98283.97
2023-01-19T03:21:54.237Z,98287.84
2023-01-19T03:24:22.700Z,98288.97
2023-01-19T03:26:58.854Z,98281.69
2023-01-19T03:29:29.731Z,98273.13
2023-01-19T03:32:01.655Z,98249.63
2023-01-19T03:34:29.007Z,98233.47
2023-01-19T03:37:01.953Z,98214.47
2023-01-19T03:39:29.121Z,98197.66
2023-01-19T03:42:01.418Z,98189.16
2023-01-19T03:44:30.149Z,98200.63
2023-01-19T03:46:58.545Z,98216.16
2023-01-19T03:49:25.282Z,98223.13
2023-01-19T03:51:55.820Z,98227.06
2023-01-19T03:54:46.802Z,98224.59
2023-01-19T03:57:38.597Z,98209.16
2023-01-19T04:17:27.160Z,98264.16
2023-01-19T04:19:53.725Z,98267.06
2023-01-19T04:22:20.259Z,98261.97
2023-01-19T04:24:47.005Z,98264.91
2023-01-19T04:27:15.007Z,98261.91
2023-01-19T04:30:12.811Z,98252.25
2023-01-19T04:33:00.071Z,98245.44
2023-01-19T04:35:27.060Z,98240.03
2023-01-19T04:37:53.771Z,98247.00
2023-01-19T04:40:20.855Z,98246.94
2023-01-19T04:42:47.672Z,98242.16
2023-01-19T04:45:14.756Z,98230.94
2023-01-19T04:47:42.720Z,98242.53
2023-01-19T04:50:11.379Z,98231.16
2023-01-19T04:52:38.196Z,98241.50
2023-01-19T04:55:06.335Z,98252.56
2023-01-19T04:57:33.221Z,98260.12
2023-01-19T05:00:00.067Z,98256.72
2023-01-19T05:02:27.124Z,98261.44
2023-01-19T05:04:53.923Z,98265.00
2023-01-19T05:07:20.612Z,98277.66
2023-01-19T05:09:47.301Z,98279.84
2023-01-19T05:12:13.887Z,98259.59
2023-01-19T05:14:40.436Z,98253.19
2023-01-19T05:17:07.249Z,98260.97
2023-01-19T05:19:33.856Z,98284.69
2023-01-19T05:22:02.832Z,98290.00
2023-01-19T05:24:29.842Z,98296.06
2023-01-19T05:26:56.491Z,98303.00
2023-01-19T05:29:23.169Z,98308.94
2023-01-19T05:31:49.831Z,98305.69
2023-01-19T05:34:35.300Z,98310.78
2023-01-19T05:37:34.523Z,98310.81
2023-01-19T05:40:01.117Z,98315.28
2023-01-19T05:42:27.704Z,98314.28
2023-01-19T05:44:54.243Z,98307.72
2023-01-19T05:47:20.788Z,98305.09
2023-01-19T05:49:47.362Z,98301.00
2023-01-19T05:52:14.890Z,98309.87
2023-01-19T05:54:41.449Z,98306.84
2023-01-19T05:57:08.245Z,98296.59
2023-01-19T05:59:35.165Z,98270.87
2023-01-19T06:02:01.830Z,98278.16
2023-01-19T06:04:28.442Z,98283.47
2023-01-19T06:06:55.034Z,98279.66
2023-01-19T06:09:21.617Z,98283.53
2023-01-19T06:11:48.476Z,98282.28
2023-01-19T06:14:15.072Z,98258.53
2023-01-19T06:16:41.735Z,98259.34
2023-01-19T06:19:08.404Z,98269.28
2023-01-19T06:21:35.018Z,98269.34
2023-01-19T06:24:02.158Z,98249.66
2023-01-19T06:26:28.703Z,98246.41
2023-01-19T06:28:55.541Z,98244.16
2023-01-19T06:31:22.441Z,98251.38
2023-01-19T06:33:49.915Z,98250.81
2023-01-19T06:36:16.576Z,98274.81
2023-01-19T06:38:43.178Z,98286.09
2023-01-19T06:41:09.783Z,98303.19
2023-01-19T06:43:36.434Z,98313.81
2023-01-19T06:46:03.512Z,98309.84
2023-01-19T06:48:30.170Z,98310.81
2023-01-19T06:50:58.710Z,98301.53
2023-01-19T06:53:28.032Z,98298.47
2023-01-19T06:56:02.043Z,98310.63
2023-01-19T06:58:30.344Z,98293.50
2023-01-19T07:01:01.940Z,98294.84
2023-01-19T07:03:28.690Z,98291.03
2023-01-19T07:05:56.806Z,98289.81
2023-01-19T07:08:24.371Z,98293.28
2023-01-19T07:11:27.146Z,98275.41
2023-01-19T07:13:39.586Z,98280.81
2023-01-19T07:16:11.757Z,98281.50
2023-01-19T07:18:40.536Z,98302.00
2023-01-19T07:21:07.573Z,98313.81
2023-01-19T07:23:34.236Z,98319.91
2023-01-19T07:26:03.116Z,98331.47
2023-01-19T07:28:31.784Z,98316.72
2023-01-19T07:30:58.655Z,98321.69
2023-01-19T07:33:26.208Z,98316.63
2023-01-19T07:35:53.599Z,98313.53
2023-01-19T07:38:20.428Z,98319.59
2023-01-19T07:40:47.789Z,98312.97
2023-01-19T07:43:15.618Z,98314.22
2023-01-19T07:45:43.077Z,98322.13
2023-01-19T07:48:09.751Z,98332.16
2023-01-19T07:50:36.463Z,98339.41
2023-01-19T07:53:07.496Z,98350.94
2023-01-19T07:55:34.268Z,98349.59
2023-01-19T07:58:01.437Z,98360.50
2023-01-19T08:00:28.106Z,98343.97
2023-01-19T08:03:04.099Z,98342.41
2023-01-19T08:05:32.572Z,98343.84
2023-01-19T08:07:59.422Z,98344.41
2023-01-19T08:10:28.863Z,98337.88
2023-01-19T08:12:57.119Z,98325.34
2023-01-19T08:15:24.875Z,98320.03
2023-01-19T08:17:59.677Z,98325.56
2023-01-19T08:20:28.290Z,98330.19
2023-01-19T08:23:05.549Z,98326.38
2023-01-19T08:25:34.719Z,98322.00
2023-01-19T08:28:02.145Z,98324.19
2023-01-19T08:30:28.784Z,98337.69
2023-01-19T08:33:03.792Z,98338.41
2023-01-19T08:35:32.078Z,98338.22
2023-01-19T08:38:01.596Z,98349.59
2023-01-19T08:40:35.980Z,98350.88
2023-01-19T08:43:07.828Z,98347.59
2023-01-19T08:45:41.664Z,98341.44
2023-01-19T08:48:08.474Z,98344.47
2023-01-19T08:50:35.290Z,98345.13
2023-01-19T08:53:03.816Z,98344.47
2023-01-19T08:55:30.586Z,98336.12
2023-01-19T08:58:00.126Z,98344.38
2023-01-19T09:00:27.424Z,98330.69
2023-01-19T09:02:55.052Z,98337.78
2023-01-19T09:05:21.733Z,98338.56
2023-01-19T09:07:51.580Z,98329.31
2023-01-19T09:10:18.844Z,98331.09
2023-01-19T09:12:46.566Z,98326.81
2023-01-19T09:15:16.665Z,98341.88
2023-01-19T09:17:43.266Z,98342.34
2023-01-19T09:20:11.648Z,98353.25
2023-01-19T09:25:20.592Z,98349.06
2023-01-19T09:27:47.620Z,98340.37
2023-01-19T09:30:14.617Z,98345.00
2023-01-19T09:32:41.227Z,98335.97
2023-01-19T09:35:08.135Z,98340.00
2023-01-19T09:37:47.537Z,98349.44
2023-01-19T09:40:47.656Z,98352.53
2023-01-19T09:43:47.860Z,98350.06
2023-01-19T09:46:36.828Z,98345.91
2023-01-19T09:49:11.539Z,98350.50
2023-01-19T09:51:41.022Z,98354.44
2023-01-19T09:54:19.811Z,98362.81
2023-01-19T09:56:52.171Z,98362.81
2023-01-19T09:59:33.561Z,98361.06
2023-01-19T10:02:06.079Z,98346.50
2023-01-19T10:04:40.319Z,98357.91
2023-01-19T10:07:15.713Z,98364.03
2023-01-19T10:10:02.602Z,98365.28
2023-01-19T10:15:28.726Z,98382.28
2023-01-19T10:18:01.696Z,98366.16
2023-01-19T10:20:33.497Z,98373.09
2023-01-19T10:23:02.172Z,98371.13
2023-01-19T10:25:30.423Z,98377.28
2023-01-19T10:31:48.744Z,98381.28
2023-01-19T10:34:21.523Z,98398.59
2023-01-19T10:36:54.853Z,98390.31
2023-01-19T10:39:21.537Z,98386.75
2023-01-19T10:41:53.312Z,98394.59
2023-01-19T10:44:37.975Z,98399.47
2023-01-19T10:47:06.883Z,98399.91
2023-01-19T10:49:39.070Z,98400.56
2023-01-19T10:52:08.282Z,98390.94
2023-01-19T10:54:37.173Z,98398.63
2023-01-19T10:57:07.510Z,98404.38
2023-01-19T10:59:52.251Z,98396.62
2023-01-19T11:02:30.701Z,98398.28
2023-01-19T11:05:21.151Z,98400.47
2023-01-19T11:07:47.762Z,98395.47
2023-01-19T11:10:22.535Z,98389.56
2023-01-19T11:13:12.566Z,98388.16
2023-01-19T11:15:54.515Z,98377.00
2023-01-19T11:18:39.024Z,98381.72
2023-01-19T11:21:14.400Z,98383.53
2023-01-19T11:23:51.182Z,98382.22
2023-01-19T11:26:35.087Z,98382.94
2023-01-19T11:29:04.019Z,98379.13
2023-01-19T11:31:33.233Z,98385.34
2023-01-19T11:34:05.756Z,98391.88
2023-01-19T11:36:35.405Z,98395.59
2023-01-19T11:39:20.435Z,98398.88
2023-01-19T11:41:50.937Z,98391.72
2023-01-19T11:44:29.560Z,98387.72
2023-01-19T11:47:10.989Z,98396.50
2023-01-19T11:50:01.454Z,98399.81
2023-01-19T11:52:41.200Z,98402.25
2023-01-19T11:55:37.147Z,98407.22
2023-01-19T11:58:05.331Z,98412.59
2023-01-19T12:00:53.022Z,98409.16
2023-01-19T12:03:22.931Z,98423.41
2023-01-19T12:05:53.364Z,98419.84
2023-01-19T12:08:30.748Z,98419.00
2023-01-19T12:10:59.908Z,98424.06
2023-01-19T12:13:28.647Z,98424.03
2023-01-19T12:16:01.212Z,98429.53
2023-01-19T12:18:40.858Z,98437.81
2023-01-19T12:21:07.544Z,98432.84
2023-01-19T12:23:44.861Z,98450.28
2023-01-19T12:26:17.743Z,98458.25
2023-01-19T12:28:48.493Z,98459.38
2023-01-19T12:31:21.602Z,98455.31
2023-01-19T12:33:48.943Z,98452.94
2023-01-19T12:36:32.221Z,98453.25
2023-01-19T12:39:04.940Z,98457.50
2023-01-19T12:41:40.209Z,98453.72
2023-01-19T12:44:13.969Z,98465.88
2023-01-19T12:46:43.631Z,98470.72
2023-01-19T12:49:10.095Z,98472.91
2023-01-19T12:51:36.799Z,98479.66
2023-01-19T12:54:07.586Z,98471.84
2023-01-19T12:56:38.204Z,98471.84
2023-01-19T12:59:06.503Z,98475.63
2023-01-19T13:01:33.188Z,98484.22
2023-01-19T13:04:01.978Z,98490.91
2023-01-19T13:06:47.049Z,98504.16
2023-01-19T13:09:37.607Z,98517.56
2023-01-19T13:12:30.590Z,98519.34
2023-01-19T13:15:34.933Z,98529.94
2023-01-19T13:18:44.948Z,98530.34
2023-01-19T13:21:54.187Z,98539.13
2023-01-19T13:24:23.505Z,98549.12
2023-01-19T13:48:27.936Z,98576.47
2023-01-19T13:51:00.328Z,98591.69
2023-01-19T13:53:27.484Z,98584.91
2023-01-19T14:05:40.993Z,98589.50
2023-01-19T14:08:13.996Z,98575.47
2023-01-19T14:13:32.319Z,98570.63
2023-01-19T14:16:07.975Z,98575.72
2023-01-19T14:18:36.316Z,98580.03
2023-01-19T15:00:58.033Z,98677.09
2023-01-19T15:09:24.130Z,98697.69
2023-01-19T15:38:00.123Z,98726.69
2023-01-19T15:40:26.832Z,98725.09
2023-01-19T15:42:53.463Z,98727.53
2023-01-19T15:45:33.428Z,98723.75
2023-01-19T15:48:06.114Z,98720.75
2023-01-19T15:50:35.594Z,98721.81
2023-01-19T15:53:04.199Z,98741.19
2023-01-19T15:55:30.826Z,98744.97
2023-01-19T16:10:54.158Z,98772.38
2023-01-19T16:13:52.147Z,98783.16
2023-01-19T16:16:41.397Z,98789.69
2023-01-19T16:24:45.580Z,98835.63
2023-01-19T16:27:12.179Z,98826.69
2023-01-19T16:29:38.799Z,98836.19
2023-01-19T16:32:05.666Z,98839.97
2023-01-19T16:34:32.212Z,98852.66
2023-01-19T16:36:59.114Z,98867.78
2023-01-19T16:39:25.685Z,98868.88
2023-01-19T16:41:52.248Z,98873.47
2023-01-19T16:44:19.232Z,98879.94
2023-01-19T16:46:47.178Z,98880.50
2023-01-19T16:49:15.089Z,98888.34
2023-01-19T16:51:42.222Z,98891.62
2023-01-19T16:54:17.024Z,98883.72
2023-01-19T16:56:44.056Z,98894.59
2023-01-19T16:59:12.475Z,98885.69
2023-01-19T17:01:39.483Z,98882.69
2023-01-19T17:04:06.649Z,98897.56
2023-01-19T17:06:33.550Z,98902.69
2023-01-19T17:09:00.261Z,98907.84
2023-01-19T17:11:30.040Z,98913.22
2023-01-19T17:13:57.910Z,98919.19
2023-01-19T17:16:25.020Z,98913.50
2023-01-19T17:18:51.896Z,98913.47
2023-01-19T17:21:19.493Z,98924.31
2023-01-19T17:23:48.295Z,98927.00
2023-01-19T17:26:16.206Z,98925.09
2023-01-19T17:28:43.171Z,98932.41
2023-01-19T17:31:21.279Z,98942.19
2023-01-19T17:33:49.570Z,98939.78
2023-01-19T17:36:22.493Z,98938.97
2023-01-19T17:38:49.463Z,98933.56
2023-01-19T17:41:27.660Z,98947.06
2023-01-19T17:43:54.932Z,98945.72
2023-01-19T17:46:24.749Z,98938.41
2023-01-19T17:48:53.542Z,98935.44
2023-01-19T17:51:22.677Z,98946.78
2023-01-19T17:53:50.746Z,98939.69
2023-01-19T17:56:23.221Z,98955.66
2023-01-19T17:58:49.916Z,98947.97
2023-01-19T18:01:19.513Z,98946.47
2023-01-19T18:03:46.875Z,98946.19
2023-01-19T18:06:13.906Z,98948.81
2023-01-19T18:08:42.891Z,98958.25
2023-01-19T18:11:11.589Z,98968.84
2023-01-19T18:13:38.895Z,98951.72
2023-01-19T18:16:14.339Z,98965.44
2023-01-19T18:18:41.155Z,98960.41
2023-01-19T18:21:11.064Z,98962.72
2023-01-19T18:23:38.486Z,98959.13
2023-01-19T18:26:10.145Z,98964.72
2023-01-19T18:28:37.260Z,98968.91
2023-01-19T18:31:10.537Z,98965.75
2023-01-19T18:33:37.938Z,98971.63
2023-01-19T18:36:05.544Z,98985.72
2023-01-19T18:38:32.403Z,98977.97
2023-01-19T18:41:06.220Z,98988.59
2023-01-19T18:43:33.301Z,98980.31
2023-01-19T18:45:59.962Z,98978.56
2023-01-19T18:48:26.579Z,98978.34
2023-01-19T18:50:53.635Z,98973.00
2023-01-19T18:53:20.580Z,98973.03
2023-01-19T18:55:55.183Z,98974.31
2023-01-19T18:58:22.466Z,98969.56
2023-01-19T19:00:52.382Z,98968.12
2023-01-19T19:03:19.371Z,98976.75
2023-01-19T19:05:46.025Z,98985.91
2023-01-19T19:08:12.781Z,98994.41
2023-01-19T19:10:44.321Z,98995.66
2023-01-19T19:13:17.747Z,99007.22
2023-01-19T19:15:44.556Z,99002.25
2023-01-19T19:18:13.828Z,99007.91
2023-01-19T19:20:42.091Z,99017.00
2023-01-19T19:23:09.161Z,99017.56
2023-01-19T19:25:35.720Z,99026.53
2023-01-19T19:28:02.325Z,99037.88
2023-01-19T19:30:28.995Z,99040.47
2023-01-19T19:32:56.528Z,99043.41
2023-01-19T19:35:24.472Z,99057.13
2023-01-19T19:37:57.293Z,99053.12
2023-01-19T19:40:27.925Z,99050.34
2023-01-19T19:42:59.666Z,99055.44
2023-01-19T19:45:26.866Z,99062.84
2023-01-19T19:47:54.453Z,99068.31
2023-01-19T19:50:21.360Z,99065.19
2023-01-19T19:52:47.964Z,99066.34
2023-01-19T19:55:15.222Z,99063.37
2023-01-19T19:57:41.865Z,99062.22
2023-01-19T20:00:13.144Z,99062.13
2023-01-19T20:05:36.256Z,99073.84
2023-01-19T20:08:32.225Z,99071.16
2023-01-19T20:11:50.057Z,99073.16
2023-01-19T20:14:40.881Z,99064.56
2023-01-19T20:17:24.997Z,99060.78
2023-01-19T20:19:52.095Z,99062.41
2023-01-19T20:22:18.664Z,99056.09
2023-01-19T20:24:45.204Z,99064.63
2023-01-19T20:27:11.837Z,99065.19
2023-01-19T20:29:38.486Z,99062.00
2023-01-19T20:32:05.813Z,99065.88
2023-01-19T20:34:33.665Z,99069.00
2023-01-19T20:37:01.736Z,99063.37
2023-01-19T20:39:30.153Z,99071.84
2023-01-19T20:41:57.036Z,99079.19
2023-01-19T20:44:25.576Z,99072.66
2023-01-19T20:46:53.020Z,99083.41
2023-01-19T20:49:19.960Z,99086.87
2023-01-19T20:51:47.040Z,99081.88
2023-01-19T20:54:16.637Z,99079.37
2023-01-19T20:56:43.287Z,99070.97
2023-01-19T20:59:11.708Z,99063.31
2023-01-19T21:01:39.519Z,99069.75
2023-01-19T21:04:06.872Z,99075.28
2023-01-19T21:06:33.897Z,99080.97
2023-01-19T21:09:00.671Z,99083.81
2023-01-19T21:11:30.565Z,99081.09
2023-01-19T21:13:57.268Z,99085.28
2023-01-19T21:19:06.643Z,99089.94
2023-01-19T21:21:33.314Z,99090.06
2023-01-19T21:24:01.700Z,99090.06
2023-01-19T21:30:08.500Z,99097.06
2023-01-19T21:32:36.833Z,99099.94
2023-01-19T21:35:03.657Z,99118.09
2023-01-19T21:37:31.176Z,99122.69
2023-01-19T21:39:57.823Z,99128.31
2023-01-19T21:42:24.513Z,99126.47
2023-01-19T21:44:51.149Z,99133.59
2023-01-19T21:47:17.742Z,99143.31
2023-01-19T21:49:44.323Z,99163.59
2023-01-19T21:52:10.954Z,99196.00
2023-01-19T21:54:38.035Z,99221.56
2023-01-19T21:57:04.912Z,99228.66
2023-01-19T21:59:31.528Z,99215.00
2023-01-19T22:01:58.206Z,99199.28
2023-01-19T22:04:24.876Z,99183.00
2023-01-19T22:06:51.437Z,99178.06
2023-01-19T22:09:18.038Z,99164.34
2023-01-19T22:11:44.576Z,99164.50
2023-01-19T22:14:11.471Z,99169.00
2023-01-19T22:16:38.141Z,99165.63
2023-01-19T22:19:07.470Z,99169.97
2023-01-19T22:21:37.789Z,99166.34
2023-01-19T22:24:05.241Z,99157.13
2023-01-19T22:26:34.056Z,99158.81
2023-01-19T22:29:01.858Z,99163.72
2023-01-19T22:31:40.663Z,99173.25
2023-01-19T22:34:10.253Z,99177.03
2023-01-19T22:36:37.935Z,99171.03
2023-01-19T22:39:12.533Z,99172.66
2023-01-19T22:41:44.899Z,99167.50
2023-01-19T22:44:14.207Z,99168.25
2023-01-19T22:46:40.845Z,99161.22
2023-01-19T22:49:08.836Z,99158.88
2023-01-19T22:51:35.583Z,99160.44
2023-01-19T22:54:02.570Z,99154.94
2023-01-19T22:56:31.255Z,99153.91
2023-01-19T22:59:01.565Z,99150.59
2023-01-19T23:02:13.143Z,99145.94
2023-01-19T23:05:12.351Z,99137.09
2023-01-19T23:07:39.729Z,99145.91
2023-01-19T23:10:09.320Z,99139.75
2023-01-19T23:12:35.946Z,99125.37
2023-01-19T23:15:02.494Z,99123.47
2023-01-19T23:17:29.343Z,99118.59
2023-01-19T23:19:55.883Z,99105.97
2023-01-19T23:24:57.661Z,99107.25
2023-01-19T23:27:24.231Z,99107.97
2023-01-19T23:30:09.886Z,99111.66
2023-01-19T23:32:36.490Z,99111.69
2023-01-19T23:35:03.145Z,99107.69
2023-01-19T23:37:29.697Z,99114.66
2023-01-19T23:39:56.240Z,99129.47
2023-01-19T23:42:22.771Z,99146.22
2023-01-19T23:44:49.311Z,99147.37
2023-01-19T23:47:16.013Z,99151.22
2023-01-19T23:49:42.562Z,99158.22
2023-01-19T23:52:09.133Z,99159.25
2023-01-19T23:54:35.785Z,99157.13
2023-01-19T23:57:02.659Z,99137.09
2023-01-19T23:59:29.226Z,99131.22
